createdAt,value
2023-05-01T00:00:40.618Z,101949.81
2023-05-01T00:03:09.125Z,101947.19
2023-05-01T00:05:37.716Z,101947.19
2023-05-01T00:08:07.967Z,101945.38
2023-05-01T00:10:37.481Z,101935.75
2023-05-01T00:13:10.857Z,101940.13
2023-05-01T00:15:43.296Z,101940.94
2023-05-01T00:18:12.097Z,101933.91
2023-05-01T00:20:40.684Z,101930.38
2023-05-01T00:23:08.993Z,101932.06
2023-05-01T00:25:37.548Z,101920.72
2023-05-01T00:28:07.791Z,101920.66
2023-05-01T00:30:36.711Z,101919.78
2023-05-01T00:33:05.514Z,101910.09
2023-05-01T00:35:35.759Z,101906.59
2023-05-01T00:38:04.191Z,101917.03
2023-05-01T00:40:34.456Z,101898.69
2023-05-01T00:43:03.450Z,101905.66
2023-05-01T00:45:33.103Z,101901.22
2023-05-01T00:48:02.262Z,101895.97
2023-05-01T00:50:31.490Z,101897.66
2023-05-01T00:53:00.118Z,101894.16
2023-05-01T00:55:28.923Z,101896.69
2023-05-01T00:57:58.886Z,101887.91
2023-05-01T01:00:29.585Z,101887.00
2023-05-01T01:02:59.947Z,101884.34
2023-05-01T01:05:30.926Z,101887.81
2023-05-01T01:08:15.276Z,101876.41
2023-05-01T01:11:09.143Z,101878.03
2023-05-01T01:13:47.301Z,101870.16
2023-05-01T01:16:26.981Z,101867.47
2023-05-01T01:19:07.609Z,101868.28
2023-05-01T01:21:43.437Z,101865.59
2023-05-01T01:24:38.981Z,101868.97
2023-05-01T01:27:41.350Z,101857.53
2023-05-01T01:30:36.619Z,101853.06
2023-05-01T01:33:40.719Z,101854.72
2023-05-01T01:36:18.417Z,101847.69
2023-05-01T01:38:55.599Z,101851.94
2023-05-01T01:41:32.002Z,101837.97
2023-05-01T01:44:07.581Z,101841.41
2023-05-01T01:46:41.172Z,101845.75
2023-05-01T01:49:19.467Z,101843.09
2023-05-01T01:51:52.876Z,101839.56
2023-05-01T01:54:34.901Z,101836.06
2023-05-01T01:57:05.843Z,101827.34
2023-05-01T01:59:35.953Z,101827.34
2023-05-01T02:02:06.167Z,101821.25
2023-05-01T02:04:38.471Z,101821.19
2023-05-01T02:07:08.197Z,101818.50
2023-05-01T02:09:38.598Z,101813.19
2023-05-01T02:12:09.885Z,101807.09
2023-05-01T02:14:42.071Z,101800.06
2023-05-01T02:17:11.928Z,101799.97
2023-05-01T02:19:42.413Z,101788.56
2023-05-01T02:22:13.389Z,101792.81
2023-05-01T02:24:43.801Z,101777.00
2023-05-01T02:27:18.638Z,101777.75
2023-05-01T02:29:47.215Z,101776.84
2023-05-01T02:32:17.863Z,101770.69
2023-05-01T02:34:47.763Z,101761.84
2023-05-01T02:37:16.700Z,101767.88
2023-05-01T02:39:45.374Z,101760.81
2023-05-01T02:42:18.024Z,101754.72
2023-05-01T02:44:53.577Z,101746.69
2023-05-01T02:47:26.070Z,101744.88
2023-05-01T02:49:57.834Z,101742.19
2023-05-01T02:52:28.813Z,101742.97
2023-05-01T02:54:59.159Z,101732.34
2023-05-01T02:57:28.490Z,101733.13
2023-05-01T02:59:57.986Z,101727.78
2023-05-01T03:02:28.079Z,101722.44
2023-05-01T03:04:58.548Z,101722.34
2023-05-01T03:07:34.984Z,101722.25
2023-05-01T03:10:04.405Z,101713.44
2023-05-01T03:12:33.077Z,101712.44
2023-05-01T03:15:01.680Z,101705.38
2023-05-01T03:17:35.759Z,101707.06
2023-05-01T03:20:07.430Z,101697.44
2023-05-01T03:22:36.169Z,101695.56
2023-05-01T03:25:05.570Z,101697.25
2023-05-01T03:27:34.016Z,101704.16
2023-05-01T03:30:02.582Z,101691.88
2023-05-01T03:32:32.809Z,101691.78
2023-05-01T03:35:01.339Z,101694.31
2023-05-01T03:37:31.591Z,101680.28
2023-05-01T03:39:59.844Z,101683.66
2023-05-01T03:42:29.930Z,101683.63
2023-05-01T03:44:58.508Z,101679.28
2023-05-01T03:47:32.260Z,101679.31
2023-05-01T03:50:00.894Z,101677.59
2023-05-01T03:52:31.022Z,101672.31
2023-05-01T03:54:59.618Z,101673.13
2023-05-01T03:57:29.944Z,101669.66
2023-05-01T03:59:59.561Z,101662.69
2023-05-01T04:02:28.797Z,101671.31
2023-05-01T04:04:58.629Z,101659.97
2023-05-01T04:07:28.298Z,101661.63
2023-05-01T04:09:58.945Z,101659.88
2023-05-01T04:12:28.256Z,101660.75
2023-05-01T04:14:57.246Z,101661.63
2023-05-01T04:17:27.372Z,101663.41
2023-05-01T04:19:56.626Z,101660.00
2023-05-01T04:22:26.847Z,101658.34
2023-05-01T04:24:56.293Z,101647.13
2023-05-01T04:27:27.470Z,101652.38
2023-05-01T04:29:56.869Z,101642.91
2023-05-01T04:32:28.595Z,101643.88
2023-05-01T04:34:57.934Z,101643.06
2023-05-01T04:37:27.545Z,101647.53
2023-05-01T04:39:56.527Z,101645.06
2023-05-01T04:42:32.481Z,101639.09
2023-05-01T04:45:04.078Z,101647.06
2023-05-01T04:47:32.801Z,101640.28
2023-05-01T04:50:01.392Z,101639.66
2023-05-01T04:52:30.477Z,101636.41
2023-05-01T04:54:59.196Z,101637.50
2023-05-01T04:57:29.714Z,101636.06
2023-05-01T04:59:58.657Z,101637.22
2023-05-01T05:02:28.269Z,101627.88
2023-05-01T05:04:57.826Z,101639.41
2023-05-01T05:07:27.944Z,101633.56
2023-05-01T05:10:07.805Z,101637.31
2023-05-01T05:12:38.121Z,101635.00
2023-05-01T05:15:07.996Z,101641.44
2023-05-01T05:17:36.635Z,101637.38
2023-05-01T05:20:05.783Z,101638.53
2023-05-01T05:22:38.251Z,101632.72
2023-05-01T05:25:07.906Z,101638.22
2023-05-01T05:27:38.529Z,101622.81
2023-05-01T05:30:08.961Z,101623.88
2023-05-01T05:32:38.923Z,101617.03
2023-05-01T05:35:09.264Z,101618.91
2023-05-01T05:37:51.047Z,101613.84
2023-05-01T05:40:20.609Z,101619.31
2023-05-01T05:42:51.149Z,101608.09
2023-05-01T05:45:20.316Z,101604.78
2023-05-01T05:47:50.973Z,101604.06
2023-05-01T05:50:20.192Z,101604.22
2023-05-01T05:52:48.694Z,101597.31
2023-05-01T05:55:17.416Z,101595.63
2023-05-01T05:57:46.303Z,101593.06
2023-05-01T06:00:18.741Z,101600.16
2023-05-01T06:02:48.097Z,101602.84
2023-05-01T06:05:16.865Z,101593.34
2023-05-01T06:07:45.455Z,101603.03
2023-05-01T06:10:13.916Z,101597.88
2023-05-01T06:12:45.545Z,101589.22
2023-05-01T06:15:45.583Z,101586.69
2023-05-01T06:18:14.425Z,101587.72
2023-05-01T06:20:43.287Z,101589.59
2023-05-01T06:23:13.829Z,101587.16
2023-05-01T06:25:52.105Z,101587.34
2023-05-01T06:28:21.849Z,101588.34
2023-05-01T06:30:52.741Z,101588.47
2023-05-01T06:33:22.403Z,101587.69
2023-05-01T06:35:51.271Z,101581.59
2023-05-01T06:38:20.904Z,101588.72
2023-05-01T06:40:51.209Z,101583.53
2023-05-01T06:43:20.202Z,101588.88
2023-05-01T06:45:49.103Z,101583.63
2023-05-01T06:48:19.004Z,101578.41
2023-05-01T06:50:48.487Z,101582.84
2023-05-01T06:53:17.212Z,101592.53
2023-05-01T06:55:45.973Z,101582.03
2023-05-01T06:58:23.611Z,101583.91
2023-05-01T07:00:55.596Z,101573.41
2023-05-01T07:03:27.819Z,101582.25
2023-05-01T07:05:57.145Z,101575.25
2023-05-01T07:08:28.147Z,101580.53
2023-05-01T07:10:57.390Z,101571.75
2023-05-01T07:13:26.478Z,101578.75
2023-05-01T07:15:55.326Z,101576.06
2023-05-01T07:18:28.046Z,101569.84
2023-05-01T07:20:57.381Z,101571.53
2023-05-01T07:23:27.651Z,101567.09
2023-05-01T07:25:57.026Z,101565.22
2023-05-01T07:28:41.732Z,101559.97
2023-05-01T07:31:11.406Z,101560.91
2023-05-01T07:33:42.047Z,101562.66
2023-05-01T07:36:10.601Z,101548.50
2023-05-01T07:38:39.287Z,101546.66
2023-05-01T07:41:07.706Z,101551.84
2023-05-01T07:43:36.195Z,101554.38
2023-05-01T07:46:05.661Z,101547.19
2023-05-01T07:48:35.035Z,101551.47
2023-05-01T07:51:05.703Z,101553.22
2023-05-01T07:53:34.744Z,101547.94
2023-05-01T07:56:08.727Z,101542.59
2023-05-01T07:58:38.046Z,101546.06
2023-05-01T08:01:08.060Z,101542.44
2023-05-01T08:03:36.677Z,101547.69
2023-05-01T08:06:07.156Z,101545.03
2023-05-01T08:08:36.038Z,101541.53
2023-05-01T08:11:04.549Z,101544.94
2023-05-01T08:13:33.646Z,101544.78
2023-05-01T08:16:06.572Z,101539.34
2023-05-01T08:18:35.196Z,101538.31
2023-05-01T08:21:04.974Z,101537.38
2023-05-01T08:23:33.373Z,101528.44
2023-05-01T08:26:02.301Z,101529.09
2023-05-01T08:28:30.834Z,101528.84
2023-05-01T08:30:59.301Z,101530.34
2023-05-01T08:33:28.183Z,101518.72
2023-05-01T08:35:56.972Z,101529.25
2023-05-01T08:38:27.488Z,101525.53
2023-05-01T08:40:56.941Z,101520.88
2023-05-01T08:43:27.160Z,101527.72
2023-05-01T08:45:57.490Z,101531.91
2023-05-01T08:48:28.450Z,101530.78
2023-05-01T08:50:59.608Z,101538.56
2023-05-01T08:53:31.443Z,101519.03
2023-05-01T08:56:01.602Z,101521.56
2023-05-01T08:58:31.987Z,101517.81
2023-05-01T09:01:01.310Z,101524.56
2023-05-01T09:03:33.464Z,101518.16
2023-05-01T09:06:04.503Z,101517.03
2023-05-01T09:08:34.894Z,101511.69
2023-05-01T09:11:04.146Z,101520.31
2023-05-01T09:13:33.344Z,101511.16
2023-05-01T09:16:02.052Z,101511.47
2023-05-01T09:18:31.510Z,101512.94
2023-05-01T09:21:00.530Z,101512.81
2023-05-01T09:23:29.455Z,101509.06
2023-05-01T09:26:00.957Z,101506.41
2023-05-01T09:28:45.689Z,101504.72
2023-05-01T09:31:26.285Z,101514.41
2023-05-01T09:33:56.686Z,101502.81
2023-05-01T09:36:26.645Z,101501.41
2023-05-01T09:38:56.243Z,101495.38
2023-05-01T09:41:26.424Z,101500.06
2023-05-01T09:43:57.032Z,101496.06
2023-05-01T09:46:27.696Z,101487.03
2023-05-01T09:49:01.715Z,101498.66
2023-05-01T09:51:32.047Z,101487.75
2023-05-01T09:54:02.786Z,101495.38
2023-05-01T09:56:34.975Z,101486.00
2023-05-01T09:59:18.404Z,101484.69
2023-05-01T10:01:50.460Z,101487.81
2023-05-01T10:04:19.776Z,101485.25
2023-05-01T10:06:48.462Z,101479.09
2023-05-01T10:09:29.334Z,101473.66
2023-05-01T10:12:00.557Z,101475.97
2023-05-01T10:14:30.291Z,101475.50
2023-05-01T10:16:59.417Z,101477.78
2023-05-01T10:19:28.265Z,101479.28
2023-05-01T10:21:57.326Z,101479.00
2023-05-01T10:24:26.898Z,101475.72
2023-05-01T10:26:59.440Z,101481.41
2023-05-01T10:29:31.255Z,101476.66
2023-05-01T10:32:00.747Z,101479.03
2023-05-01T10:34:30.218Z,101487.72
2023-05-01T10:37:05.650Z,101488.72
2023-05-01T10:39:35.555Z,101486.66
2023-05-01T10:42:08.597Z,101482.69
2023-05-01T10:44:37.877Z,101482.03
2023-05-01T10:47:47.226Z,101480.63
2023-05-01T10:50:16.510Z,101476.66
2023-05-01T10:53:18.283Z,101477.47
2023-05-01T10:55:50.401Z,101478.88
2023-05-01T10:58:59.746Z,101464.81
2023-05-01T11:01:36.188Z,101468.34
2023-05-01T11:04:08.211Z,101472.72
2023-05-01T11:06:38.904Z,101461.28
2023-05-01T11:09:44.005Z,101457.88
2023-05-01T11:12:13.991Z,101467.53
2023-05-01T11:15:09.753Z,101461.38
2023-05-01T11:17:50.000Z,101457.31
2023-05-01T11:20:52.640Z,101447.66
2023-05-01T11:23:25.501Z,101464.22
2023-05-01T11:26:08.808Z,101454.72
2023-05-01T11:28:44.385Z,101448.09
2023-05-01T11:31:20.278Z,101460.22
2023-05-01T11:33:49.424Z,101447.75
2023-05-01T11:36:17.898Z,101451.59
2023-05-01T11:38:53.477Z,101454.59
2023-05-01T11:41:22.874Z,101446.94
2023-05-01T11:43:55.041Z,101447.41
2023-05-01T11:46:30.783Z,101447.88
2023-05-01T11:49:01.373Z,101447.34
2023-05-01T11:51:32.058Z,101442.50
2023-05-01T11:54:09.597Z,101438.09
2023-05-01T11:56:40.951Z,101434.88
2023-05-01T11:59:16.180Z,101443.06
2023-05-01T12:01:47.897Z,101432.94
2023-05-01T12:04:29.654Z,101443.31
2023-05-01T12:07:00.392Z,101436.28
2023-05-01T12:09:33.922Z,101443.41
2023-05-01T12:12:03.428Z,101445.16
2023-05-01T12:14:32.364Z,101437.09
2023-05-01T12:17:04.221Z,101440.16
2023-05-01T12:19:34.716Z,101439.38
2023-05-01T12:22:09.885Z,101429.34
2023-05-01T12:24:39.920Z,101436.81
2023-05-01T12:27:09.945Z,101432.06
2023-05-01T12:29:42.271Z,101440.28
2023-05-01T12:32:13.475Z,101447.72
2023-05-01T12:34:43.757Z,101433.84
2023-05-01T12:37:13.479Z,101435.53
2023-05-01T12:39:45.034Z,101429.34
2023-05-01T12:42:17.189Z,101433.75
2023-05-01T12:44:45.743Z,101430.81
2023-05-01T12:47:16.472Z,101422.56
2023-05-01T12:49:46.845Z,101429.88
2023-05-01T12:52:17.645Z,101433.78
2023-05-01T12:54:47.375Z,101435.66
2023-05-01T12:57:18.459Z,101438.75
2023-05-01T12:59:49.919Z,101434.53
2023-05-01T13:02:21.608Z,101441.06
2023-05-01T13:04:51.917Z,101440.16
2023-05-01T13:07:22.237Z,101437.56
2023-05-01T13:09:55.441Z,101438.25
2023-05-01T13:12:25.589Z,101435.56
2023-05-01T13:14:56.487Z,101433.41
2023-05-01T13:17:31.926Z,101435.94
2023-05-01T13:20:04.116Z,101439.19
2023-05-01T13:22:37.644Z,101439.06
2023-05-01T13:25:18.603Z,101427.88
2023-05-01T13:27:51.766Z,101431.28
2023-05-01T13:30:23.364Z,101433.69
2023-05-01T13:32:53.723Z,101433.41
2023-05-01T13:35:28.305Z,101429.81
2023-05-01T13:37:57.399Z,101426.88
2023-05-01T13:40:27.923Z,101432.56
2023-05-01T13:42:56.787Z,101435.28
2023-05-01T13:45:28.145Z,101434.31
2023-05-01T13:47:58.712Z,101434.81
2023-05-01T13:50:28.317Z,101433.00
2023-05-01T13:52:56.818Z,101433.28
2023-05-01T13:55:26.301Z,101435.50
2023-05-01T13:57:55.103Z,101442.75
2023-05-01T14:00:24.905Z,101434.66
2023-05-01T14:02:56.696Z,101432.16
2023-05-01T14:05:29.320Z,101433.97
2023-05-01T14:08:00.817Z,101439.88
2023-05-01T14:10:30.273Z,101438.31
2023-05-01T14:12:59.599Z,101434.91
2023-05-01T14:15:29.708Z,101429.28
2023-05-01T14:18:01.023Z,101429.28
2023-05-01T14:20:31.161Z,101439.09
2023-05-01T14:23:00.673Z,101441.06
2023-05-01T14:25:34.492Z,101440.38
2023-05-01T14:28:07.916Z,101443.72
2023-05-01T14:30:39.438Z,101440.63
2023-05-01T14:33:11.270Z,101446.53
2023-05-01T14:35:50.045Z,101445.47
2023-05-01T14:38:21.504Z,101439.28
2023-05-01T14:40:50.352Z,101450.13
2023-05-01T14:43:22.025Z,101451.25
2023-05-01T14:45:51.343Z,101447.38
2023-05-01T14:48:25.211Z,101448.00
2023-05-01T14:50:56.129Z,101446.44
2023-05-01T14:53:25.051Z,101457.22
2023-05-01T14:55:54.304Z,101453.59
2023-05-01T14:58:23.405Z,101451.69
2023-05-01T15:00:52.256Z,101449.75
2023-05-01T15:03:21.373Z,101455.94
2023-05-01T15:05:50.386Z,101454.88
2023-05-01T15:08:20.433Z,101456.63
2023-05-01T15:10:49.264Z,101455.66
2023-05-01T15:13:17.857Z,101463.69
2023-05-01T15:15:48.432Z,101456.53
2023-05-01T15:18:17.455Z,101460.53
2023-05-01T15:20:46.580Z,101453.47
2023-05-01T15:23:15.248Z,101460.53
2023-05-01T15:25:45.465Z,101465.00
2023-05-01T15:28:14.575Z,101463.28
2023-05-01T15:30:46.702Z,101463.94
2023-05-01T15:33:18.827Z,101460.69
2023-05-01T15:35:48.935Z,101466.03
2023-05-01T15:38:17.429Z,101470.91
2023-05-01T15:40:47.524Z,101461.59
2023-05-01T15:43:15.837Z,101458.78
2023-05-01T15:45:44.879Z,101470.34
2023-05-01T15:48:13.708Z,101470.00
2023-05-01T15:50:42.078Z,101480.91
2023-05-01T15:53:10.414Z,101478.56
2023-05-01T15:55:38.833Z,101478.06
2023-05-01T15:58:09.217Z,101478.06
2023-05-01T16:00:39.825Z,101469.16
2023-05-01T16:03:09.948Z,101482.69
2023-05-01T16:05:40.429Z,101482.81
2023-05-01T16:08:09.440Z,101481.63
2023-05-01T16:10:38.035Z,101472.34
2023-05-01T16:13:08.408Z,101479.03
2023-05-01T16:15:39.467Z,101469.78
2023-05-01T16:18:08.103Z,101486.09
2023-05-01T16:20:43.558Z,101472.56
2023-05-01T16:23:13.087Z,101488.22
2023-05-01T16:25:44.338Z,101484.72
2023-05-01T16:28:18.656Z,101481.38
2023-05-01T16:30:47.510Z,101487.78
2023-05-01T16:33:23.413Z,101490.75
2023-05-01T16:35:51.880Z,101487.44
2023-05-01T16:38:21.445Z,101487.00
2023-05-01T16:40:50.150Z,101493.28
2023-05-01T16:43:22.671Z,101495.09
2023-05-01T16:45:54.124Z,101498.41
2023-05-01T16:48:31.407Z,101500.13
2023-05-01T16:51:00.143Z,101498.44
2023-05-01T16:53:29.388Z,101498.44
2023-05-01T16:55:58.277Z,101500.34
2023-05-01T16:58:30.741Z,101502.50
2023-05-01T17:00:59.955Z,101509.75
2023-05-01T17:03:43.961Z,101502.16
2023-05-01T17:06:12.598Z,101510.06
2023-05-01T17:08:41.269Z,101514.28
2023-05-01T17:11:09.993Z,101508.50
2023-05-01T17:13:42.937Z,101500.75
2023-05-01T17:16:11.871Z,101508.31
2023-05-01T17:18:40.713Z,101499.69
2023-05-01T17:21:09.655Z,101495.22
2023-05-01T17:23:38.064Z,101499.81
2023-05-01T17:26:06.912Z,101509.34
2023-05-01T17:28:35.389Z,101499.06
2023-05-01T17:31:05.610Z,101496.06
2023-05-01T17:33:33.946Z,101499.16
2023-05-01T17:36:02.974Z,101497.00
2023-05-01T17:38:31.983Z,101500.66
2023-05-01T17:41:00.356Z,101511.31
2023-05-01T17:43:29.442Z,101501.75
2023-05-01T17:45:58.400Z,101504.66
2023-05-01T17:48:31.628Z,101512.69
2023-05-01T17:51:00.306Z,101518.88
2023-05-01T17:54:24.596Z,101520.06
2023-05-01T17:56:53.632Z,101523.44
2023-05-01T17:59:23.500Z,101527.63
2023-05-01T18:01:54.398Z,101526.88
2023-05-01T18:04:24.737Z,101522.97
2023-05-01T18:06:56.562Z,101527.41
2023-05-01T18:09:25.333Z,101537.56
2023-05-01T18:11:53.989Z,101532.81
2023-05-01T18:14:23.176Z,101534.38
2023-05-01T18:16:52.884Z,101542.94
2023-05-01T18:19:23.196Z,101544.28
2023-05-01T18:21:52.218Z,101543.41
2023-05-01T18:24:21.661Z,101555.31
2023-05-01T18:26:50.477Z,101557.59
2023-05-01T18:29:18.932Z,101562.50
2023-05-01T18:31:48.015Z,101556.78
2023-05-01T18:34:16.417Z,101566.97
2023-05-01T18:36:52.100Z,101568.31
2023-05-01T18:39:22.573Z,101574.03
2023-05-01T18:41:51.918Z,101571.72
2023-05-01T18:44:21.549Z,101574.63
2023-05-01T18:46:50.685Z,101583.63
2023-05-01T18:49:23.511Z,101589.97
2023-05-01T18:51:53.707Z,101589.22
2023-05-01T18:54:23.186Z,101606.06
2023-05-01T18:56:52.042Z,101597.34
2023-05-01T18:59:26.974Z,101598.34
2023-05-01T19:01:55.486Z,101608.16
2023-05-01T19:04:24.596Z,101606.50
2023-05-01T19:06:54.578Z,101606.53
2023-05-01T19:09:23.704Z,101618.03
2023-05-01T19:11:52.097Z,101619.00
2023-05-01T19:14:22.061Z,101623.41
2023-05-01T19:16:50.928Z,101628.75
2023-05-01T19:19:19.705Z,101634.91
2023-05-01T19:21:48.198Z,101628.78
2023-05-01T19:24:18.150Z,101637.56
2023-05-01T19:26:49.723Z,101630.56
2023-05-01T19:29:18.203Z,101634.09
2023-05-01T19:31:46.684Z,101637.63
2023-05-01T19:34:15.148Z,101637.63
2023-05-01T19:36:43.609Z,101633.25
2023-05-01T19:39:13.055Z,101636.78
2023-05-01T19:41:43.001Z,101635.00
2023-05-01T19:44:11.544Z,101636.75
2023-05-01T19:46:39.908Z,101638.53
2023-05-01T19:49:09.085Z,101641.13
2023-05-01T19:51:37.537Z,101633.25
2023-05-01T19:54:06.169Z,101642.03
2023-05-01T19:56:35.083Z,101635.88
2023-05-01T19:59:05.181Z,101642.00
2023-05-01T20:01:33.736Z,101640.22
2023-05-01T20:04:02.581Z,101645.47
2023-05-01T20:06:31.476Z,101651.63
2023-05-01T20:08:59.873Z,101656.88
2023-05-01T20:11:28.764Z,101660.38
2023-05-01T20:13:57.452Z,101666.50
2023-05-01T20:16:29.192Z,101669.16
2023-05-01T20:18:57.895Z,101668.25
2023-05-01T20:21:26.638Z,101676.19
2023-05-01T20:23:55.424Z,101666.56
2023-05-01T20:26:26.306Z,101679.72
2023-05-01T20:28:54.746Z,101674.41
2023-05-01T20:31:23.672Z,101685.81
2023-05-01T20:33:53.768Z,101689.31
2023-05-01T20:38:53.184Z,101690.22
2023-05-01T20:41:21.812Z,101686.72
2023-05-01T20:43:50.411Z,101692.84
2023-05-01T20:46:19.993Z,101692.00
2023-05-01T20:48:48.555Z,101693.78
2023-05-01T20:51:19.585Z,101694.66
2023-05-01T20:53:48.683Z,101703.44
2023-05-01T20:56:17.314Z,101701.69
2023-05-01T20:58:46.047Z,101709.59
2023-05-01T21:01:14.726Z,101706.09
2023-05-01T21:03:43.400Z,101705.19
2023-05-01T21:06:12.199Z,101703.44
2023-05-01T21:08:43.525Z,101700.81
2023-05-01T21:11:12.111Z,101696.41
2023-05-01T21:13:43.814Z,101699.06
2023-05-01T21:16:15.986Z,101692.91
2023-05-01T21:18:44.973Z,101692.94
2023-05-01T21:21:16.424Z,101695.53
2023-05-01T21:23:49.698Z,101683.25
2023-05-01T21:26:19.625Z,101684.16
2023-05-01T21:28:54.253Z,101690.31
2023-05-01T21:31:23.354Z,101685.00
2023-05-01T21:33:53.806Z,101685.88
2023-05-01T21:36:22.588Z,101681.47
2023-05-01T21:38:53.367Z,101694.63
2023-05-01T21:41:21.952Z,101692.84
2023-05-01T21:43:50.783Z,101698.16
2023-05-01T21:46:20.943Z,101692.88
2023-05-01T21:48:52.273Z,101698.16
2023-05-01T21:51:28.505Z,101698.16
2023-05-01T21:54:01.344Z,101695.53
2023-05-01T21:56:29.891Z,101704.28
2023-05-01T21:59:03.047Z,101700.81
2023-05-01T22:01:31.683Z,101706.94
2023-05-01T22:04:00.483Z,101700.78
2023-05-01T22:06:29.782Z,101706.94
2023-05-01T22:09:00.035Z,101704.28
2023-05-01T22:11:28.901Z,101708.69
2023-05-01T22:13:58.413Z,101706.91
2023-05-01T22:16:26.983Z,101713.06
2023-05-01T22:18:55.698Z,101722.66
2023-05-01T22:21:24.586Z,101712.09
2023-05-01T22:23:53.520Z,101721.66
2023-05-01T22:26:23.978Z,101719.88
2023-05-01T22:28:53.025Z,101718.13
2023-05-01T22:31:21.829Z,101719.91
2023-05-01T22:33:50.714Z,101727.84
2023-05-01T22:36:19.043Z,101734.84
2023-05-01T22:38:47.541Z,101737.50
2023-05-01T22:41:16.163Z,101745.38
2023-05-01T22:43:48.632Z,101744.53
2023-05-01T22:46:17.408Z,101750.69
2023-05-01T22:48:45.945Z,101755.94
2023-05-01T22:51:14.289Z,101757.69
2023-05-01T22:53:42.807Z,101759.44
2023-05-01T22:56:11.279Z,101758.56
2023-05-01T22:58:39.685Z,101765.56
2023-05-01T23:01:09.608Z,101764.69
2023-05-01T23:03:39.096Z,101769.97
2023-05-01T23:06:07.919Z,101778.75
2023-05-01T23:08:36.501Z,101777.00
2023-05-01T23:11:06.558Z,101769.09
2023-05-01T23:13:35.069Z,101775.28
2023-05-01T23:16:03.559Z,101781.41
2023-05-01T23:18:34.504Z,101779.66
2023-05-01T23:21:03.474Z,101781.38
2023-05-01T23:23:32.888Z,101791.03
2023-05-01T23:26:01.807Z,101789.25
2023-05-01T23:28:30.777Z,101789.22
2023-05-01T23:31:03.433Z,101788.28
2023-05-01T23:33:38.181Z,101793.56
2023-05-01T23:36:12.520Z,101796.16
2023-05-01T23:38:41.445Z,101803.09
2023-05-01T23:41:10.591Z,101803.97
2023-05-01T23:43:40.167Z,101800.41
2023-05-01T23:46:08.819Z,101805.59
2023-05-01T23:48:39.051Z,101806.41
2023-05-01T23:51:08.077Z,101811.59
2023-05-01T23:53:36.951Z,101808.03
2023-05-01T23:56:05.873Z,101815.91
2023-05-01T23:58:34.265Z,101827.25
